Airfield :







YOU CAN JOIN US ON...

 
LOGIN :

Register | Disclaimer

   EN    FR    IT 

 









Legend :    VFR   Marginal VFR   IFR   Intensive IFR   Very Intensive IFR
Visi :
Ceiling :
>= 8 km
>= 3000ft
5 to 8 km
1000 to 3000 ft
1500m to 5 km
500 to 1000 ft
800 to 1500m
200 to 500 ft
< 800m
< 200 ft
Symbols :   Thunderstorms  Fog  Heavy snow  Heavy precipitations  Wind > 20 kt






- Airport Elevation : 489 ft


KHUL - Houlton International

CURRENT METAR :
  • 211653Z AUTO VRB03KT 10SM SCT024 OVC041 13/09 A2993 RMK AO2 SLP137 T01330089

EXPIRED METARs :
  • 211553Z AUTO VRB04KT 10SM OVC026 12/08 A2995 RMK AO2 SLP144 T01170078
  • 211543Z AUTO 20004KT 10SM BKN028 OVC037 12/08 A2995 RMK AO2 T01170078
  • 211453Z AUTO 21005KT 10SM FEW009 OVC040 11/08 A2996 RMK AO2 SLP147 T01060078 51004

TAF KHUL
Valid from the 21 at 16:00 until the 22 at 12:00 UTC


211622Z 2116/2212 VRB03KT P6SM VCSH OVC025
FM212200 12004KT P6SM -SHRA OVC007
FM220200 14004KT 3SM BR OVC003
FM220700 14006KT 1SM BR OVC003
KZBW FIR / North America



MET'MAP, your aeronautical weather chart ! - Copyright ORBIFLY December 2007 - Disclaimer

ORBIFLY MET'MAP TEAM :

Programming & Development : Alexandra Zaïnal
Concept & original design : Baudouin d'Aumeries
Assistance for programming : Marc-Olivier Méhu
Technical & hardware support : Manuel Goepfert

Contact : metmap@orbifly.com




SOURCES & CREDITS :

   NOAA